createdAt,value
2016-08-31T00:00:31.577Z,21.64
2016-08-31T00:01:32.314Z,21.62
2016-08-31T00:02:32.247Z,21.64
2016-08-31T00:03:32.375Z,21.64
2016-08-31T00:04:33.108Z,21.58
2016-08-31T00:05:32.423Z,21.54
2016-08-31T00:06:31.744Z,21.46
2016-08-31T00:07:32.482Z,21.45
2016-08-31T00:08:31.789Z,21.45
2016-08-31T00:09:33.255Z,21.43
2016-08-31T00:10:32.560Z,21.4
2016-08-31T00:11:31.868Z,21.37
2016-08-31T00:12:32.609Z,21.42
2016-08-31T00:13:33.357Z,21.42
2016-08-31T00:14:32.671Z,21.37
2016-08-31T00:15:32.714Z,21.36
2016-08-31T00:16:33.428Z,21.43
2016-08-31T00:17:32.033Z,21.39
2016-08-31T00:18:33.488Z,21.37
2016-08-31T00:19:32.796Z,21.36
2016-08-31T00:20:33.535Z,21.36
2016-08-31T00:21:32.146Z,21.33
2016-08-31T00:22:32.167Z,21.37
2016-08-31T00:23:33.614Z,21.39
2016-08-31T00:24:32.928Z,21.33
2016-08-31T00:25:33.686Z,21.25
2016-08-31T00:26:32.274Z,21.29
2016-08-31T00:27:33.013Z,21.29
2016-08-31T00:28:32.343Z,21.29
2016-08-31T00:29:33.773Z,21.24
2016-08-31T00:30:33.088Z,21.2
2016-08-31T00:31:32.406Z,21.15
2016-08-31T00:32:33.144Z,21.12
2016-08-31T00:33:32.459Z,21.09
2016-08-31T00:34:33.195Z,21.12
2016-08-31T00:35:32.511Z,21.02
2016-08-31T00:36:33.267Z,21.03
2016-08-31T00:37:33.275Z,21.06
2016-08-31T00:38:33.302Z,21.03
2016-08-31T00:39:33.326Z,20.97
2016-08-31T00:40:32.643Z,21.03
2016-08-31T00:41:33.378Z,21.06
2016-08-31T00:42:32.700Z,21
2016-08-31T00:43:33.434Z,21
2016-08-31T00:44:32.750Z,20.97
2016-08-31T00:45:32.782Z,20.93
2016-08-31T00:46:32.802Z,20.97
2016-08-31T00:47:33.535Z,20.92
2016-08-31T00:48:33.563Z,20.88
2016-08-31T00:49:32.883Z,20.9
2016-08-31T00:50:33.617Z,20.87
2016-08-31T00:51:33.652Z,20.92
2016-08-31T00:52:33.678Z,20.9
2016-08-31T00:53:34.409Z,20.81
2016-08-31T00:54:33.722Z,20.78
2016-08-31T00:55:33.769Z,20.87
2016-08-31T00:56:33.085Z,20.78
2016-08-31T00:57:33.814Z,20.84
2016-08-31T00:58:33.844Z,20.84
2016-08-31T00:59:33.165Z,20.75
2016-08-31T01:00:33.878Z,20.8
2016-08-31T01:01:33.913Z,20.81
2016-08-31T01:02:33.934Z,20.78
2016-08-31T01:03:34.671Z,20.77
2016-08-31T01:04:34.702Z,20.69
2016-08-31T01:05:33.303Z,20.7
2016-08-31T01:06:33.322Z,20.7
2016-08-31T01:07:34.773Z,20.7
2016-08-31T01:08:34.802Z,20.74
2016-08-31T01:09:33.403Z,20.69
2016-08-31T01:10:34.853Z,20.69
2016-08-31T01:11:34.887Z,20.69
2016-08-31T01:12:34.195Z,20.77
2016-08-31T01:13:34.226Z,20.78
2016-08-31T01:14:34.960Z,20.77
2016-08-31T01:15:34.285Z,20.69
2016-08-31T01:16:34.303Z,20.7
2016-08-31T01:17:34.331Z,20.78
2016-08-31T01:18:35.061Z,20.7
2016-08-31T01:19:34.375Z,20.66
2016-08-31T01:20:35.119Z,20.66
2016-08-31T01:21:33.719Z,20.69
2016-08-31T01:22:34.453Z,20.63
2016-08-31T01:23:35.216Z,20.63
2016-08-31T01:24:34.510Z,20.59
2016-08-31T01:25:35.259Z,20.59
2016-08-31T01:26:34.567Z,20.62
2016-08-31T01:27:35.308Z,20.63
2016-08-31T01:28:34.614Z,20.62
2016-08-31T01:29:35.349Z,20.58
2016-08-31T01:30:34.663Z,20.59
2016-08-31T01:31:34.777Z,20.62
2016-08-31T01:32:34.721Z,20.6
2016-08-31T01:33:34.742Z,20.52
2016-08-31T01:34:34.766Z,20.55
2016-08-31T01:35:34.793Z,20.58
2016-08-31T01:36:34.824Z,20.55
2016-08-31T01:37:34.151Z,20.58
2016-08-31T01:38:34.882Z,20.63
2016-08-31T01:39:35.620Z,20.63
2016-08-31T01:40:34.232Z,20.55
2016-08-31T01:41:34.252Z,20.59
2016-08-31T01:42:34.989Z,20.55
2016-08-31T01:43:34.997Z,20.58
2016-08-31T01:44:35.033Z,20.59
2016-08-31T01:45:34.346Z,20.56
2016-08-31T01:46:35.791Z,20.52
2016-08-31T01:47:35.108Z,20.58
2016-08-31T01:48:35.838Z,20.56
2016-08-31T01:49:35.160Z,20.51
2016-08-31T01:50:34.476Z,20.55
2016-08-31T01:51:35.214Z,20.41
2016-08-31T01:52:35.238Z,20.48
2016-08-31T01:53:35.974Z,20.48
2016-08-31T01:54:35.302Z,20.41
2016-08-31T01:55:36.024Z,20.43
2016-08-31T01:56:34.627Z,20.5
2016-08-31T01:57:34.674Z,20.41
2016-08-31T01:58:35.393Z,20.39
2016-08-31T01:59:34.716Z,20.41
2016-08-31T02:00:35.446Z,20.43
2016-08-31T02:01:35.469Z,20.36
2016-08-31T02:02:34.791Z,20.36
2016-08-31T02:03:36.233Z,20.4
2016-08-31T02:04:35.545Z,20.31
2016-08-31T02:05:34.883Z,20.32
2016-08-31T02:06:36.309Z,20.29
2016-08-31T02:07:35.628Z,20.22
2016-08-31T02:08:35.653Z,20.25
2016-08-31T02:09:34.965Z,20.28
2016-08-31T02:10:34.994Z,20.25
2016-08-31T02:11:35.742Z,20.32
2016-08-31T02:12:35.754Z,20.24
2016-08-31T02:13:35.791Z,20.25
2016-08-31T02:14:36.521Z,20.28
2016-08-31T02:15:36.550Z,20.21
2016-08-31T02:16:35.147Z,20.19
2016-08-31T02:17:35.172Z,20.16
2016-08-31T02:18:35.923Z,20.13
2016-08-31T02:19:35.934Z,20.19
2016-08-31T02:20:36.669Z,20.16
2016-08-31T02:21:35.988Z,20.07
2016-08-31T02:22:36.012Z,20.04
2016-08-31T02:23:35.330Z,20.03
2016-08-31T02:24:36.776Z,20.1
2016-08-31T02:25:36.090Z,20.09
2016-08-31T02:26:36.138Z,20.06
2016-08-31T02:27:36.141Z,20.09
2016-08-31T02:28:36.889Z,20.02
2016-08-31T02:29:36.204Z,20.18
2016-08-31T02:30:35.507Z,20.11
2016-08-31T02:31:36.247Z,20.03
2016-08-31T02:32:36.268Z,20.03
2016-08-31T02:33:36.299Z,20.1
2016-08-31T02:34:35.610Z,20.03
2016-08-31T02:35:35.648Z,20.09
2016-08-31T02:36:35.662Z,20.1
2016-08-31T02:37:35.687Z,20.02
2016-08-31T02:38:36.418Z,20.07
2016-08-31T02:39:35.762Z,19.99
2016-08-31T02:40:37.208Z,20.02
2016-08-31T02:41:36.504Z,20.11
2016-08-31T02:42:36.528Z,20.04
2016-08-31T02:43:36.556Z,20.13
2016-08-31T02:44:37.286Z,20.06
2016-08-31T02:45:36.601Z,19.99
2016-08-31T02:46:36.625Z,20.09
2016-08-31T02:47:36.655Z,20
2016-08-31T02:48:37.388Z,20.03
2016-08-31T02:49:36.703Z,20.02
2016-08-31T02:50:37.450Z,19.96
2016-08-31T02:51:36.769Z,19.96
2016-08-31T02:52:36.797Z,19.96
2016-08-31T02:53:37.535Z,19.85
2016-08-31T02:54:36.828Z,19.86
2016-08-31T02:55:37.567Z,19.91
2016-08-31T02:56:37.592Z,19.99
2016-08-31T02:57:36.200Z,19.86
2016-08-31T02:58:36.226Z,19.89
2016-08-31T02:59:36.962Z,19.94
2016-08-31T03:00:36.990Z,19.85
2016-08-31T03:01:37.726Z,19.89
2016-08-31T03:02:37.035Z,19.73
2016-08-31T03:03:37.100Z,19.85
2016-08-31T03:04:37.093Z,19.84
2016-08-31T03:05:37.122Z,19.84
2016-08-31T03:06:37.167Z,19.86
2016-08-31T03:07:37.891Z,19.74
2016-08-31T03:08:36.479Z,19.79
2016-08-31T03:09:36.513Z,19.85
2016-08-31T03:10:37.245Z,19.84
2016-08-31T03:11:37.278Z,19.85
2016-08-31T03:12:37.301Z,19.74
2016-08-31T03:13:38.036Z,19.74
2016-08-31T03:14:38.055Z,19.79
2016-08-31T03:15:37.377Z,19.77
2016-08-31T03:16:37.394Z,19.76
2016-08-31T03:17:38.132Z,19.79
2016-08-31T03:18:36.734Z,19.76
2016-08-31T03:19:36.759Z,19.79
2016-08-31T03:20:36.791Z,19.74
2016-08-31T03:21:38.232Z,19.74
2016-08-31T03:22:37.544Z,19.79
2016-08-31T03:23:36.892Z,19.74
2016-08-31T03:24:37.598Z,19.76
2016-08-31T03:25:37.628Z,19.69
2016-08-31T03:26:36.939Z,19.67
2016-08-31T03:27:36.963Z,19.7
2016-08-31T03:28:36.996Z,19.73
2016-08-31T03:29:38.435Z,19.69
2016-08-31T03:30:37.756Z,19.66
2016-08-31T03:31:37.063Z,19.67
2016-08-31T03:32:37.798Z,19.54
2016-08-31T03:33:37.831Z,19.64
2016-08-31T03:34:37.852Z,19.59
2016-08-31T03:35:37.167Z,19.59
2016-08-31T03:36:37.919Z,19.54
2016-08-31T03:37:38.640Z,19.52
2016-08-31T03:38:37.251Z,19.51
2016-08-31T03:39:37.975Z,19.44
2016-08-31T03:40:37.999Z,19.45
2016-08-31T03:41:37.324Z,19.47
2016-08-31T03:42:38.762Z,19.44
2016-08-31T03:43:37.377Z,19.49
2016-08-31T03:44:38.811Z,19.45
2016-08-31T03:45:38.149Z,19.51
2016-08-31T03:46:38.158Z,19.41
2016-08-31T03:47:37.485Z,19.52
2016-08-31T03:48:38.205Z,19.41
2016-08-31T03:49:37.530Z,19.37
2016-08-31T03:50:37.544Z,19.4
2016-08-31T03:51:38.292Z,19.33
2016-08-31T03:52:39.018Z,19.39
2016-08-31T03:53:37.626Z,19.29
2016-08-31T03:54:39.065Z,19.26
2016-08-31T03:55:38.388Z,19.27
2016-08-31T03:56:38.404Z,19.31
2016-08-31T03:57:38.435Z,19.33
2016-08-31T03:58:37.750Z,19.31
2016-08-31T03:59:38.479Z,19.21
2016-08-31T04:00:37.801Z,19.27
2016-08-31T04:01:37.832Z,19.3
2016-08-31T04:02:38.554Z,19.18
2016-08-31T04:03:38.590Z,19.22
2016-08-31T04:04:39.319Z,19.16
2016-08-31T04:05:38.630Z,19.29
2016-08-31T04:06:39.397Z,19.22
2016-08-31T04:07:38.695Z,19.22
2016-08-31T04:08:38.705Z,19.18
2016-08-31T04:09:38.738Z,19.19
2016-08-31T04:10:38.757Z,19.22
2016-08-31T04:11:39.495Z,19.15
2016-08-31T04:12:39.527Z,19.24
2016-08-31T04:13:38.133Z,19.19
2016-08-31T04:14:38.863Z,19.26
2016-08-31T04:15:38.891Z,19.26
2016-08-31T04:16:38.906Z,19.24
2016-08-31T04:17:38.951Z,19.21
2016-08-31T04:18:39.681Z,19.21
2016-08-31T04:19:38.982Z,19.27
2016-08-31T04:20:39.010Z,19.29
2016-08-31T04:21:38.332Z,19.29
2016-08-31T04:22:38.350Z,19.29
2016-08-31T04:23:39.792Z,19.3
2016-08-31T04:24:39.110Z,19.19
2016-08-31T04:25:39.132Z,19.29
2016-08-31T04:26:39.174Z,19.19
2016-08-31T04:27:39.188Z,19.29
2016-08-31T04:28:39.919Z,19.26
2016-08-31T04:29:39.233Z,19.27
2016-08-31T04:30:39.989Z,19.19
2016-08-31T04:31:40.001Z,19.29
2016-08-31T04:32:39.316Z,19.33
2016-08-31T04:33:40.046Z,19.33
2016-08-31T04:34:40.069Z,19.29
2016-08-31T04:35:39.178Z,19.33
2016-08-31T04:36:39.426Z,19.34
2016-08-31T04:37:38.732Z,19.39
2016-08-31T04:38:38.759Z,19.37
2016-08-31T04:39:38.779Z,19.39
2016-08-31T04:40:38.806Z,19.39
2016-08-31T04:41:39.543Z,19.4
2016-08-31T04:42:38.852Z,19.41
2016-08-31T04:43:38.877Z,19.44
2016-08-31T04:44:39.615Z,19.39
2016-08-31T04:45:39.663Z,19.41
2016-08-31T04:46:38.953Z,19.39
2016-08-31T04:47:40.395Z,19.37
2016-08-31T04:48:40.428Z,19.41
2016-08-31T04:49:40.454Z,19.33
2016-08-31T04:50:39.057Z,19.39
2016-08-31T04:51:39.796Z,19.47
2016-08-31T04:52:39.103Z,19.41
2016-08-31T04:53:39.844Z,19.44
2016-08-31T04:54:39.155Z,19.45
2016-08-31T04:55:39.899Z,19.36
2016-08-31T04:56:40.642Z,19.41
2016-08-31T04:57:40.660Z,19.39
2016-08-31T04:58:39.967Z,19.39
2016-08-31T04:59:39.995Z,19.3
2016-08-31T05:00:39.309Z,19.34
2016-08-31T05:01:39.330Z,19.27
2016-08-31T05:02:39.355Z,19.3
2016-08-31T05:03:40.100Z,19.3
2016-08-31T05:04:40.122Z,19.29
2016-08-31T05:05:40.863Z,19.27
2016-08-31T05:06:40.165Z,19.33
2016-08-31T05:07:39.491Z,19.34
2016-08-31T05:08:40.217Z,19.34
2016-08-31T05:09:40.240Z,19.34
2016-08-31T05:10:40.270Z,19.39
2016-08-31T05:11:39.587Z,19.41
2016-08-31T05:12:40.329Z,19.47
2016-08-31T05:13:39.631Z,19.36
2016-08-31T05:14:41.087Z,19.39
2016-08-31T05:15:40.392Z,19.37
2016-08-31T05:16:39.721Z,19.37
2016-08-31T05:17:40.467Z,19.41
2016-08-31T05:18:39.760Z,19.39
2016-08-31T05:19:40.507Z,19.44
2016-08-31T05:20:40.530Z,19.29
2016-08-31T05:21:39.839Z,19.24
2016-08-31T05:22:40.572Z,19.31
2016-08-31T05:23:40.590Z,19.4
2016-08-31T05:24:39.908Z,19.37
2016-08-31T05:25:39.933Z,19.34
2016-08-31T05:26:40.667Z,19.39
2016-08-31T05:27:40.705Z,19.44
2016-08-31T05:28:40.034Z,19.48
2016-08-31T05:29:41.454Z,19.36
2016-08-31T05:30:40.062Z,19.37
2016-08-31T05:31:40.084Z,19.33
2016-08-31T05:32:40.817Z,19.37
2016-08-31T05:33:40.846Z,19.4
2016-08-31T05:34:40.157Z,19.51
2016-08-31T05:35:42.190Z,19.41
2016-08-31T05:36:40.919Z,19.49
2016-08-31T05:37:40.946Z,19.47
2016-08-31T05:38:40.967Z,19.51
2016-08-31T05:39:41.186Z,19.4
2016-08-31T05:40:41.037Z,19.41
2016-08-31T05:41:41.754Z,19.39
2016-08-31T05:42:41.070Z,19.49
2016-08-31T05:43:41.805Z,19.45
2016-08-31T05:44:40.411Z,19.54
2016-08-31T05:45:41.858Z,19.58
2016-08-31T05:46:40.480Z,19.55
2016-08-31T05:47:41.203Z,19.52
2016-08-31T05:48:40.516Z,19.55
2016-08-31T05:49:40.537Z,19.58
2016-08-31T05:50:40.560Z,19.51
2016-08-31T05:51:41.301Z,19.63
2016-08-31T05:52:41.325Z,19.66
2016-08-31T05:53:42.057Z,19.59
2016-08-31T05:54:42.103Z,19.62
2016-08-31T05:55:42.107Z,19.59
2016-08-31T05:56:40.714Z,19.7
2016-08-31T05:57:41.450Z,19.77
2016-08-31T05:58:40.767Z,19.73
2016-08-31T05:59:41.520Z,19.76
2016-08-31T06:00:42.243Z,19.81
2016-08-31T06:01:40.845Z,19.84
2016-08-31T06:02:42.286Z,19.82
2016-08-31T06:03:41.601Z,19.81
2016-08-31T06:04:41.628Z,19.88
2016-08-31T06:05:41.898Z,19.92
2016-08-31T06:06:41.676Z,20.02
2016-08-31T06:07:41.020Z,19.86
2016-08-31T06:08:41.025Z,19.95
2016-08-31T06:09:41.756Z,20.02
2016-08-31T06:10:41.071Z,20.06
2016-08-31T06:11:41.096Z,20.1
2016-08-31T06:12:41.832Z,20.09
2016-08-31T06:13:42.586Z,20.22
2016-08-31T06:14:41.884Z,20.16
2016-08-31T06:15:41.199Z,20.31
2016-08-31T06:16:42.688Z,20.19
2016-08-31T06:17:41.960Z,20.26
2016-08-31T06:18:42.002Z,20.26
2016-08-31T06:19:41.304Z,20.31
2016-08-31T06:20:42.750Z,20.24
2016-08-31T06:21:42.065Z,20.34
2016-08-31T06:22:41.383Z,20.31
2016-08-31T06:23:42.833Z,20.29
2016-08-31T06:24:42.142Z,20.29
2016-08-31T06:25:42.168Z,20.43
2016-08-31T06:26:42.193Z,20.4
2016-08-31T06:27:42.217Z,20.41
2016-08-31T06:28:42.253Z,20.41
2016-08-31T06:29:42.270Z,20.48
2016-08-31T06:30:43.023Z,20.44
2016-08-31T06:31:43.050Z,20.44
2016-08-31T06:32:43.055Z,20.52
2016-08-31T06:33:42.377Z,20.55
2016-08-31T06:34:43.109Z,20.56
2016-08-31T06:35:42.428Z,20.67
2016-08-31T06:36:42.458Z,20.69
2016-08-31T06:37:41.770Z,20.65
2016-08-31T06:38:41.794Z,20.67
2016-08-31T06:39:43.241Z,20.67
2016-08-31T06:40:42.557Z,20.7
2016-08-31T06:41:43.291Z,20.75
2016-08-31T06:42:41.899Z,20.81
2016-08-31T06:43:43.346Z,20.74
2016-08-31T06:44:42.661Z,20.69
2016-08-31T06:45:41.983Z,20.7
2016-08-31T06:46:42.712Z,20.63
2016-08-31T06:47:43.459Z,20.74
2016-08-31T06:48:43.485Z,20.78
2016-08-31T06:49:42.790Z,20.77
2016-08-31T06:50:42.104Z,20.78
2016-08-31T06:51:42.843Z,20.82
2016-08-31T06:52:42.154Z,20.84
2016-08-31T06:53:42.188Z,20.88
2016-08-31T06:54:42.921Z,20.95
2016-08-31T06:55:42.968Z,20.92
2016-08-31T06:56:42.278Z,20.97
2016-08-31T06:57:42.291Z,20.95
2016-08-31T06:58:43.021Z,21.05
2016-08-31T06:59:43.056Z,21.03
2016-08-31T07:00:43.079Z,21.02
2016-08-31T07:01:43.812Z,20.95
2016-08-31T07:02:43.840Z,20.92
2016-08-31T07:03:43.245Z,21.02
2016-08-31T07:04:43.189Z,20.97
2016-08-31T07:05:43.209Z,20.95
2016-08-31T07:06:43.234Z,21.05
2016-08-31T07:07:42.551Z,21.07
2016-08-31T07:08:42.580Z,21.11
2016-08-31T07:09:42.604Z,21.21
2016-08-31T07:10:44.053Z,21.2
2016-08-31T07:11:43.369Z,21.24
2016-08-31T07:12:43.404Z,21.11
2016-08-31T07:13:42.715Z,21.18
2016-08-31T07:14:43.446Z,21.09
2016-08-31T07:15:42.805Z,21.14
2016-08-31T07:16:44.222Z,21.12
2016-08-31T07:17:44.236Z,21.03
2016-08-31T07:18:42.840Z,21.05
2016-08-31T07:19:43.581Z,20.82
2016-08-31T07:20:42.909Z,20.81
2016-08-31T07:21:43.631Z,20.72
2016-08-31T07:22:42.950Z,20.72
2016-08-31T07:23:44.392Z,20.84
2016-08-31T07:24:43.714Z,20.9
2016-08-31T07:25:44.448Z,20.97
2016-08-31T07:26:44.467Z,21
2016-08-31T07:27:43.095Z,20.99
2016-08-31T07:28:43.814Z,20.92
2016-08-31T07:29:43.836Z,21.03
2016-08-31T07:30:43.867Z,21.12
2016-08-31T07:31:43.182Z,21.29
2016-08-31T07:32:43.918Z,21.3
2016-08-31T07:33:43.239Z,21.46
2016-08-31T07:34:44.682Z,21.51
2016-08-31T07:35:43.285Z,21.51
2016-08-31T07:36:43.314Z,21.5
2016-08-31T07:37:44.049Z,21.64
2016-08-31T07:38:44.082Z,21.7
2016-08-31T07:39:44.108Z,21.77
2016-08-31T07:40:43.421Z,21.76
2016-08-31T07:41:44.195Z,21.85
2016-08-31T07:42:43.561Z,21.98
2016-08-31T07:43:44.333Z,22.04
2016-08-31T07:44:44.945Z,22.11
2016-08-31T07:45:44.263Z,22.23
2016-08-31T07:46:45.009Z,22.28
2016-08-31T07:47:44.319Z,22.3
2016-08-31T07:48:43.637Z,22.28
2016-08-31T07:49:44.380Z,22.47
2016-08-31T07:50:43.688Z,22.39
2016-08-31T07:51:44.432Z,22.41
2016-08-31T07:52:44.451Z,22.44
2016-08-31T07:53:46.163Z,22.35
2016-08-31T07:54:45.217Z,22.43
2016-08-31T07:55:43.823Z,22.48
2016-08-31T07:56:43.859Z,22.41
2016-08-31T07:57:43.877Z,22.48
2016-08-31T07:58:44.619Z,22.57
2016-08-31T07:59:45.353Z,22.57
2016-08-31T08:00:43.958Z,22.6
2016-08-31T08:01:44.000Z,22.62
2016-08-31T08:02:44.936Z,22.66
2016-08-31T08:03:44.208Z,22.75
2016-08-31T08:04:44.227Z,22.73
2016-08-31T08:05:44.953Z,22.78
2016-08-31T08:06:44.275Z,22.91
2016-08-31T08:07:44.342Z,22.91
2016-08-31T08:08:44.298Z,22.9
2016-08-31T08:09:44.215Z,22.9
2016-08-31T08:10:44.232Z,23.02
2016-08-31T08:11:44.967Z,23.17
2016-08-31T08:12:44.290Z,23.12
2016-08-31T08:13:45.021Z,23.13
2016-08-31T08:14:45.056Z,23.23
2016-08-31T08:15:44.373Z,23.36
2016-08-31T08:16:45.107Z,23.27
2016-08-31T08:17:45.844Z,23.47
2016-08-31T08:18:45.164Z,23.51
2016-08-31T08:19:44.482Z,23.54
2016-08-31T08:20:45.950Z,23.61
2016-08-31T08:21:45.256Z,23.71
2016-08-31T08:22:44.564Z,23.76
2016-08-31T08:23:44.591Z,23.78
2016-08-31T08:24:44.640Z,23.87
2016-08-31T08:25:44.651Z,23.99
2016-08-31T08:26:44.677Z,23.93
2016-08-31T08:27:44.704Z,23.95
2016-08-31T08:28:45.444Z,23.92
2016-08-31T08:29:45.469Z,24.03
2016-08-31T08:30:46.210Z,24.11
2016-08-31T08:31:44.819Z,24.14
2016-08-31T08:32:45.557Z,24.16
2016-08-31T08:33:46.300Z,24.26
2016-08-31T08:34:45.620Z,24.33
2016-08-31T08:35:44.932Z,24.43
2016-08-31T08:36:46.384Z,24.5
2016-08-31T08:37:45.701Z,24.54
2016-08-31T08:38:45.018Z,24.57
2016-08-31T08:39:45.063Z,24.68
2016-08-31T08:40:46.494Z,24.73
2016-08-31T08:41:46.523Z,24.69
2016-08-31T08:42:45.841Z,24.7
2016-08-31T08:43:45.883Z,24.73
2016-08-31T08:44:46.611Z,24.73
2016-08-31T08:45:45.928Z,24.86
2016-08-31T08:46:45.246Z,24.98
2016-08-31T08:47:45.995Z,24.98
2016-08-31T08:48:45.300Z,24.89
2016-08-31T08:49:45.355Z,24.93
2016-08-31T08:50:46.783Z,25.14
2016-08-31T08:51:45.387Z,24.96
2016-08-31T08:52:46.836Z,25.01
2016-08-31T08:53:46.158Z,25.01
2016-08-31T08:54:46.183Z,25.13
2016-08-31T08:55:45.514Z,24.98
2016-08-31T08:56:46.956Z,25.1
2016-08-31T08:57:46.281Z,25.13
2016-08-31T08:58:45.591Z,25.21
2016-08-31T08:59:46.338Z,25.29
2016-08-31T09:00:46.360Z,25.31
2016-08-31T09:01:45.684Z,25.35
2016-08-31T09:02:46.418Z,25.41
2016-08-31T09:03:47.161Z,25.44
2016-08-31T09:04:46.472Z,25.5
2016-08-31T09:05:46.508Z,25.51
2016-08-31T09:06:45.824Z,25.55
2016-08-31T09:07:46.564Z,25.54
2016-08-31T09:08:46.626Z,25.54
2016-08-31T09:09:46.623Z,25.55
2016-08-31T09:10:45.944Z,25.53
2016-08-31T09:11:47.498Z,25.51
2016-08-31T09:12:46.714Z,25.51
2016-08-31T09:13:46.031Z,25.66
2016-08-31T09:14:46.073Z,25.75
2016-08-31T09:15:46.797Z,25.69
2016-08-31T09:16:47.544Z,25.83
2016-08-31T09:17:46.861Z,25.88
2016-08-31T09:18:47.620Z,25.87
2016-08-31T09:19:46.920Z,25.91
2016-08-31T09:20:46.335Z,26.07
2016-08-31T09:21:46.979Z,26.03
2016-08-31T09:22:47.003Z,26.1
2016-08-31T09:23:47.753Z,25.99
2016-08-31T09:24:47.065Z,26.06
2016-08-31T09:25:47.814Z,26.1
2016-08-31T09:26:47.138Z,26.21
2016-08-31T09:27:46.444Z,26.38
2016-08-31T09:28:47.186Z,26.38
2016-08-31T09:29:47.237Z,26.52
2016-08-31T09:30:47.959Z,26.58
2016-08-31T09:31:47.987Z,26.45
2016-08-31T09:32:46.591Z,26.59
2016-08-31T09:33:47.455Z,26.6
2016-08-31T09:34:46.651Z,26.63
2016-08-31T09:35:48.651Z,26.7
2016-08-31T09:36:47.447Z,26.83
2016-08-31T09:37:47.451Z,26.83
2016-08-31T09:38:47.482Z,26.9
2016-08-31T09:39:47.512Z,27.02
2016-08-31T09:40:48.255Z,26.9
2016-08-31T09:41:48.286Z,26.93
2016-08-31T09:42:47.602Z,27.02
2016-08-31T09:43:48.366Z,27.11
2016-08-31T09:44:47.667Z,26.97
2016-08-31T09:45:46.985Z,27.08
2016-08-31T09:46:47.723Z,27.08
2016-08-31T09:47:47.759Z,27.14
2016-08-31T09:48:47.076Z,27.18
2016-08-31T09:49:47.817Z,27.2
2016-08-31T09:50:47.134Z,27.21
2016-08-31T09:51:48.594Z,27.33
2016-08-31T09:52:47.936Z,27.2
2016-08-31T09:53:47.937Z,27.26
2016-08-31T09:54:47.965Z,27.21
2016-08-31T09:55:47.997Z,27.27
2016-08-31T09:56:48.030Z,27.4
2016-08-31T09:57:48.059Z,27.44
2016-08-31T09:58:48.092Z,27.36
2016-08-31T09:59:48.129Z,27.42
2016-08-31T10:00:48.862Z,27.54
2016-08-31T10:01:47.470Z,27.64
2016-08-31T10:02:48.925Z,27.6
2016-08-31T10:03:47.548Z,27.54
2016-08-31T10:04:47.566Z,27.54
2016-08-31T10:05:47.595Z,27.45
2016-08-31T10:06:47.620Z,27.49
2016-08-31T10:07:47.656Z,27.52
2016-08-31T10:08:47.687Z,27.58
2016-08-31T10:09:47.746Z,27.7
2016-08-31T10:10:49.176Z,27.68
2016-08-31T10:11:47.775Z,27.86
2016-08-31T10:12:47.806Z,27.78
2016-08-31T10:13:49.258Z,27.93
2016-08-31T10:14:48.577Z,27.92
2016-08-31T10:15:49.324Z,28.01
2016-08-31T10:16:47.931Z,28.11
2016-08-31T10:17:47.962Z,28.1
2016-08-31T10:18:48.704Z,28.12
2016-08-31T10:19:48.734Z,28.23
2016-08-31T10:20:48.067Z,28.17
2016-08-31T10:21:49.530Z,28.14
2016-08-31T10:22:48.119Z,28.12
2016-08-31T10:23:48.858Z,28.11
2016-08-31T10:24:48.183Z,28.23
2016-08-31T10:25:48.211Z,28.14
2016-08-31T10:26:48.955Z,28.17
2016-08-31T10:27:48.996Z,28.19
2016-08-31T10:28:49.013Z,28.2
2016-08-31T10:29:49.054Z,28.3
2016-08-31T10:30:49.793Z,28.38
2016-08-31T10:31:49.821Z,28.44
2016-08-31T10:32:49.876Z,28.41
2016-08-31T10:33:48.459Z,28.45
2016-08-31T10:34:48.491Z,28.45
2016-08-31T10:35:49.237Z,28.56
2016-08-31T10:36:49.977Z,28.37
2016-08-31T10:37:49.291Z,28.38
2016-08-31T10:38:48.623Z,28.49
2016-08-31T10:39:50.082Z,28.56
2016-08-31T10:40:49.391Z,28.59
2016-08-31T10:41:48.706Z,28.69
2016-08-31T10:42:48.761Z,28.78
2016-08-31T10:43:49.483Z,28.75
2016-08-31T10:44:49.513Z,28.79
2016-08-31T10:45:48.834Z,28.84
2016-08-31T10:46:50.285Z,28.86
2016-08-31T10:47:49.621Z,28.78
2016-08-31T10:48:49.640Z,28.85
2016-08-31T10:49:49.692Z,28.91
2016-08-31T10:50:48.998Z,28.89
2016-08-31T10:51:49.025Z,28.98
2016-08-31T10:52:49.766Z,29.1
2016-08-31T10:53:49.796Z,29.13
2016-08-31T10:54:50.542Z,29.14
2016-08-31T10:55:49.861Z,29.12
2016-08-31T10:56:49.185Z,29.17
2016-08-31T10:57:49.923Z,29.2
2016-08-31T10:58:50.676Z,29.22
2016-08-31T10:59:49.277Z,29.31
2016-08-31T11:00:50.732Z,29.32
2016-08-31T11:01:50.083Z,29.32
2016-08-31T11:02:50.792Z,29.32
2016-08-31T11:03:50.143Z,29.34
2016-08-31T11:04:49.432Z,29.31
2016-08-31T11:05:50.888Z,29.27
2016-08-31T11:06:49.505Z,29.34
2016-08-31T11:07:49.547Z,29.29
2016-08-31T11:08:50.282Z,29.34
2016-08-31T11:09:49.596Z,29.38
2016-08-31T11:10:51.044Z,29.42
2016-08-31T11:11:49.658Z,29.32
2016-08-31T11:12:51.122Z,29.45
2016-08-31T11:13:49.719Z,29.45
2016-08-31T11:14:50.486Z,29.38
2016-08-31T11:15:50.494Z,29.35
2016-08-31T11:16:49.823Z,29.34
2016-08-31T11:17:50.558Z,29.39
2016-08-31T11:18:50.588Z,29.39
2016-08-31T11:19:51.336Z,29.38
2016-08-31T11:20:49.949Z,29.42
2016-08-31T11:21:49.979Z,29.54
2016-08-31T11:22:50.722Z,29.53
2016-08-31T11:23:50.055Z,29.59
2016-08-31T11:24:51.497Z,29.66
2016-08-31T11:25:50.835Z,29.72
2016-08-31T11:26:50.139Z,29.73
2016-08-31T11:27:50.885Z,29.87
2016-08-31T11:28:50.196Z,29.76
2016-08-31T11:29:50.946Z,29.79
2016-08-31T11:30:50.303Z,29.84
2016-08-31T11:31:51.024Z,29.97
2016-08-31T11:32:51.768Z,29.88
2016-08-31T11:33:51.330Z,29.78
2016-08-31T11:34:50.597Z,29.94
2016-08-31T11:35:51.146Z,30
2016-08-31T11:36:50.481Z,30.08
2016-08-31T11:37:51.968Z,30
2016-08-31T11:38:51.235Z,29.82
2016-08-31T11:39:50.572Z,29.97
2016-08-31T11:40:51.307Z,29.98
2016-08-31T11:41:51.325Z,29.9
2016-08-31T11:42:51.512Z,29.86
2016-08-31T11:43:51.393Z,29.81
2016-08-31T11:44:52.140Z,29.84
2016-08-31T11:45:51.457Z,29.87
2016-08-31T11:46:52.210Z,29.94
2016-08-31T11:47:51.530Z,29.94
2016-08-31T11:48:51.571Z,29.86
2016-08-31T11:49:51.656Z,29.84
2016-08-31T11:50:50.910Z,29.9
2016-08-31T11:51:52.614Z,30
2016-08-31T11:52:51.733Z,30.02
2016-08-31T11:53:51.000Z,30.06
2016-08-31T11:54:51.749Z,30.18
2016-08-31T11:55:52.670Z,30.21
2016-08-31T11:56:51.815Z,30.18
2016-08-31T11:57:52.631Z,30.18
2016-08-31T11:58:51.903Z,30.21
2016-08-31T11:59:52.619Z,30.21
2016-08-31T12:00:52.661Z,30.25
2016-08-31T12:01:51.976Z,30.23
2016-08-31T12:02:52.005Z,30.31
2016-08-31T12:03:52.041Z,30.3
2016-08-31T12:04:52.084Z,30.27
2016-08-31T12:05:52.111Z,30.27
2016-08-31T12:06:52.152Z,30.28
2016-08-31T12:07:53.059Z,30.3
2016-08-31T12:08:52.273Z,30.24
2016-08-31T12:09:52.982Z,30.21
2016-08-31T12:10:51.561Z,30.3
2016-08-31T12:11:52.295Z,30.05
2016-08-31T12:12:51.617Z,30.09
2016-08-31T12:13:52.373Z,30.06
2016-08-31T12:14:52.395Z,30.18
2016-08-31T12:15:52.542Z,30.16
2016-08-31T12:16:51.768Z,29.94
2016-08-31T12:17:52.854Z,30
2016-08-31T12:18:53.249Z,29.97
2016-08-31T12:19:53.288Z,29.97
2016-08-31T12:20:52.592Z,29.94
2016-08-31T12:21:52.627Z,30.05
2016-08-31T12:22:53.382Z,30.08
2016-08-31T12:23:52.009Z,29.97
2016-08-31T12:24:52.004Z,30.06
2016-08-31T12:25:52.752Z,30.13
2016-08-31T12:26:52.789Z,30.21
2016-08-31T12:27:52.104Z,29.98
2016-08-31T12:28:53.563Z,29.86
2016-08-31T12:29:52.899Z,29.94
2016-08-31T12:30:52.206Z,30.02
2016-08-31T12:31:53.686Z,30.05
2016-08-31T12:32:52.267Z,29.98
2016-08-31T12:33:52.296Z,30.05
2016-08-31T12:34:53.892Z,30.1
2016-08-31T12:35:52.462Z,30.12
2016-08-31T12:36:53.247Z,30.12
2016-08-31T12:37:52.457Z,30.21
2016-08-31T12:38:54.041Z,30.3
2016-08-31T12:39:52.498Z,30.27
2016-08-31T12:40:53.319Z,30.21
2016-08-31T12:41:53.267Z,30.39
2016-08-31T12:42:52.590Z,30.39
2016-08-31T12:43:52.636Z,30.34
2016-08-31T12:44:53.366Z,30.46
2016-08-31T12:45:52.684Z,30.4
2016-08-31T12:46:53.428Z,30.37
2016-08-31T12:47:52.773Z,30.37
2016-08-31T12:48:53.506Z,30.43
2016-08-31T12:49:53.528Z,30.46
2016-08-31T12:50:54.270Z,30.55
2016-08-31T12:51:54.306Z,30.61
2016-08-31T12:52:53.623Z,30.57
2016-08-31T12:53:53.653Z,30.55
2016-08-31T12:55:40.453Z,30.66
2016-08-31T12:55:59.773Z,30.65